Time;durP1;ratioP1;P1;durP2;ratioP2;P2;SDS_P1;SDS_P2;PMS_P1;PMS_P2;Temp;Humidity;BMP_temperature;BMP_pressure;BME280_temperature;BME280_humidity;BME280_pressure;Samples;Min_cycle;Max_cycle;Signal;HPM_P1;HPM_P2
2022/06/12 00:00:50;;;;;;;3.4;2.6;;;;;;;14.71;79.76172;945.2136;;;;
2022/06/12 00:03:14;;;;;;;3;2.7;;;;;;;14.53;80.76563;945.2742;;;;
2022/06/12 00:05:39;;;;;;;3.7;2.5;;;;;;;14.54;80.64063;945.2629;;;;
2022/06/12 00:08:05;;;;;;;2.7;2.3;;;;;;;14.43;81.07031;945.2797;;;;
2022/06/12 00:10:30;;;;;;;3.1;2.7;;;;;;;14.42;81.73535;945.2684;;;;
2022/06/12 00:12:57;;;;;;;2.9;2.6;;;;;;;14.49;81.14941;945.3011;;;;
2022/06/12 00:15:23;;;;;;;3.3;2.7;;;;;;;14.47;81.19238;945.1777;;;;
2022/06/12 00:17:49;;;;;;;2.8;2.6;;;;;;;14.37;81.63477;945.1933;;;;
2022/06/12 00:20:14;;;;;;;2.7;2.5;;;;;;;14.48;81.00977;945.1945;;;;
2022/06/12 00:22:40;;;;;;;2.9;2.3;;;;;;;14.48;80.49121;945.2169;;;;
2022/06/12 00:25:06;;;;;;;2.9;2.2;;;;;;;14.49;79.95117;945.1312;;;;
2022/06/12 00:27:31;;;;;;;3.7;2.6;;;;;;;14.29;80.95313;945.2017;;;;
2022/06/12 00:29:57;;;;;;;3;2.7;;;;;;;14.27;81.13184;945.1863;;;;
2022/06/12 00:32:24;;;;;;;4.2;2.2;;;;;;;14.17;81.40137;945.1869;;;;
2022/06/12 00:34:48;;;;;;;2.9;2.6;;;;;;;13.96;82.16797;945.2228;;;;
2022/06/12 00:37:13;;;;;;;2.9;2.4;;;;;;;13.83;82.90332;945.2145;;;;
2022/06/12 00:39:38;;;;;;;2.8;2.6;;;;;;;13.91;83.05371;945.2167;;;;
2022/06/12 00:42:03;;;;;;;2.7;2.5;;;;;;;13.96;82.74219;945.2244;;;;
2022/06/12 00:44:29;;;;;;;3;2.5;;;;;;;13.85;83.35449;945.157;;;;
2022/06/12 00:46:54;;;;;;;4.2;3;;;;;;;13.91;82.82324;945.2759;;;;
2022/06/12 00:49:19;;;;;;;3.2;2.6;;;;;;;13.97;82.66504;945.2894;;;;
2022/06/12 00:51:44;;;;;;;2.9;2.7;;;;;;;14;82.43945;945.2952;;;;
2022/06/12 00:54:10;;;;;;;3.8;2.7;;;;;;;14.01;82.29199;945.2736;;;;
2022/06/12 00:56:35;;;;;;;3.6;2.9;;;;;;;13.93;82.49512;945.2289;;;;
2022/06/12 00:59:00;;;;;;;2.7;2.4;;;;;;;13.9;82.59375;945.2023;;;;
2022/06/12 01:01:27;;;;;;;3;2.6;;;;;;;13.8;83.18262;945.1683;;;;
2022/06/12 01:06:50;;;;;;;3.1;2.8;;;;;;;13.61;84.35547;945.1033;;;;
2022/06/12 01:08:42;;;;;;;3.5;2.9;;;;;;;13.66;84.47949;945.0664;;;;
2022/06/12 01:11:07;;;;;;;4.1;2.8;;;;;;;13.68;84.10352;945.0401;;;;
2022/06/12 01:13:32;;;;;;;2.9;2.7;;;;;;;13.6;84.30762;945.1208;;;;
2022/06/12 01:15:57;;;;;;;3.9;2.7;;;;;;;13.51;84.88867;945.1696;;;;
2022/06/12 01:18:23;;;;;;;2.9;2.7;;;;;;;13.6;85.07813;945.1544;;;;
2022/06/12 01:20:48;;;;;;;3;2.7;;;;;;;13.72;84.21582;945.1708;;;;
2022/06/12 01:23:15;;;;;;;4.6;2.9;;;;;;;13.83;83.4541;945.2234;;;;
2022/06/12 01:25:40;;;;;;;3.4;2.7;;;;;;;13.79;83.80371;945.1995;;;;
2022/06/12 01:28:16;;;;;;;4.2;3.1;;;;;;;13.9;83.15723;945.2198;;;;
2022/06/12 01:30:41;;;;;;;2.9;2.6;;;;;;;13.84;83.22754;945.181;;;;
2022/06/12 01:33:06;;;;;;;2.9;2.6;;;;;;;13.86;83.28906;945.1948;;;;
2022/06/12 01:35:32;;;;;;;3.5;2.7;;;;;;;13.94;82.55469;945.1401;;;;
2022/06/12 01:37:57;;;;;;;3.1;2.7;;;;;;;13.76;82.77344;945.116;;;;
2022/06/12 01:40:22;;;;;;;3.3;2.8;;;;;;;13.66;83.35449;945.1224;;;;
2022/06/12 01:42:51;;;;;;;3.2;2.6;;;;;;;13.64;83.24512;945.0366;;;;
2022/06/12 01:45:17;;;;;;;4.4;2.8;;;;;;;13.64;83.1875;944.991;;;;
2022/06/12 01:47:42;;;;;;;4.3;2.8;;;;;;;13.51;83.80762;945.0528;;;;
2022/06/12 01:50:11;;;;;;;3.2;2.5;;;;;;;13.48;84.08984;945.0397;;;;
2022/06/12 01:52:36;;;;;;;3.4;2.8;;;;;;;13.47;84.23438;945.0468;;;;
2022/06/12 01:55:01;;;;;;;2.9;2.7;;;;;;;13.43;84.26172;944.9487;;;;
2022/06/12 01:57:27;;;;;;;4;2.5;;;;;;;13.36;84.6748;945.0279;;;;
2022/06/12 01:59:52;;;;;;;2.7;2.5;;;;;;;13.29;85.0625;944.9824;;;;
2022/06/12 02:02:17;;;;;;;3.1;2.5;;;;;;;13.3;85.18066;944.9585;;;;
2022/06/12 02:04:42;;;;;;;4.2;2.8;;;;;;;13.22;85.29004;944.8258;;;;
2022/06/12 02:07:07;;;;;;;3;2.7;;;;;;;13.04;86.10449;944.9073;;;;
2022/06/12 02:09:32;;;;;;;3.6;2.6;;;;;;;13.05;86.11914;944.8627;;;;
2022/06/12 02:14:22;;;;;;;3.2;2.9;;;;;;;13.09;85.67969;944.9031;;;;
2022/06/12 02:16:47;;;;;;;3.5;3.1;;;;;;;13.02;86.33008;944.8847;;;;
2022/06/12 02:19:12;;;;;;;4.1;3.1;;;;;;;13.02;86.56152;944.9263;;;;
2022/06/12 02:21:41;;;;;;;4;3;;;;;;;13.09;86.14941;944.895;;;;
2022/06/12 02:24:03;;;;;;;3.1;2.5;;;;;;;13.11;85.78516;944.9136;;;;
2022/06/12 02:26:28;;;;;;;3.1;2.8;;;;;;;12.98;86.62109;944.9264;;;;
2022/06/12 02:28:53;;;;;;;2.9;2.6;;;;;;;13.07;86.11328;944.9045;;;;
2022/06/12 02:31:18;;;;;;;3;2.6;;;;;;;13.07;85.60742;944.8948;;;;
2022/06/12 02:33:43;;;;;;;4.2;2.7;;;;;;;13.13;85.2627;944.9506;;;;
2022/06/12 02:36:09;;;;;;;3.1;2.8;;;;;;;13.13;85.31836;944.8937;;;;
2022/06/12 02:38:34;;;;;;;2.9;2.6;;;;;;;13.12;85.24707;944.9281;;;;
2022/06/12 02:40:59;;;;;;;3.5;3.1;;;;;;;13.12;84.98438;944.853;;;;
2022/06/12 02:43:24;;;;;;;2.8;2.5;;;;;;;13.1;84.86426;944.9088;;;;
2022/06/12 02:45:49;;;;;;;2.9;2.6;;;;;;;12.96;85.50391;944.9174;;;;
2022/06/12 02:48:14;;;;;;;3.3;2.9;;;;;;;12.84;86.21387;944.9359;;;;
2022/06/12 02:50:41;;;;;;;2.9;2.7;;;;;;;12.86;86.13867;944.9315;;;;
2022/06/12 02:53:07;;;;;;;3.2;2.9;;;;;;;12.9;85.89355;944.9742;;;;
2022/06/12 02:55:32;;;;;;;3.3;3;;;;;;;12.75;86.69141;944.9291;;;;
2022/06/12 02:57:57;;;;;;;3.4;2.7;;;;;;;12.83;86.39551;944.9942;;;;
2022/06/12 03:00:22;;;;;;;3.8;3;;;;;;;12.76;86.72559;944.9747;;;;
2022/06/12 03:02:47;;;;;;;3.5;2.6;;;;;;;12.71;86.79492;944.9565;;;;
2022/06/12 03:05:13;;;;;;;2.9;2.6;;;;;;;12.76;86.7373;944.9891;;;;
2022/06/12 03:07:39;;;;;;;3.1;2.8;;;;;;;12.73;87.12207;944.9241;;;;
2022/06/12 03:10:03;;;;;;;2.9;2.5;;;;;;;12.77;87.05078;944.9548;;;;
2022/06/12 03:12:29;;;;;;;3.5;3.1;;;;;;;12.76;87.2207;944.9971;;;;
2022/06/12 03:14:55;;;;;;;3.8;3.4;;;;;;;12.81;87.13867;944.9737;;;;
2022/06/12 03:17:20;;;;;;;2.6;2.4;;;;;;;12.73;86.98438;944.9719;;;;
2022/06/12 03:19:45;;;;;;;4.3;2.4;;;;;;;12.86;86.51563;944.9762;;;;
2022/06/12 03:22:11;;;;;;;2.9;2.6;;;;;;;12.87;86.33398;944.9963;;;;
2022/06/12 03:24:36;;;;;;;3.5;2.8;;;;;;;12.74;86.66699;944.9841;;;;
2022/06/12 03:27:01;;;;;;;3;2.7;;;;;;;12.69;86.75879;944.9842;;;;
2022/06/12 03:29:26;;;;;;;3.4;2.8;;;;;;;12.62;86.90527;945.0345;;;;
2022/06/12 03:31:51;;;;;;;4;2.9;;;;;;;12.5;87.89063;945.0488;;;;
2022/06/12 03:34:16;;;;;;;3.5;2.8;;;;;;;12.52;87.88281;945.0658;;;;
2022/06/12 03:36:43;;;;;;;3;2.7;;;;;;;12.56;87.55762;945.0023;;;;
2022/06/12 03:39:08;;;;;;;3.5;2.8;;;;;;;12.64;87.16113;945.0556;;;;
2022/06/12 03:41:33;;;;;;;3.9;3.3;;;;;;;12.76;86.57813;945.1122;;;;
2022/06/12 03:43:59;;;;;;;3.4;2.9;;;;;;;12.79;85.95215;945.1421;;;;
2022/06/12 03:46:24;;;;;;;4.3;2.8;;;;;;;12.78;86.12109;945.1404;;;;
2022/06/12 03:48:49;;;;;;;4.6;2.6;;;;;;;12.63;87.2168;945.133;;;;
2022/06/12 03:51:14;;;;;;;3.8;2.8;;;;;;;12.54;87.78516;945.1531;;;;
2022/06/12 03:53:41;;;;;;;3.1;2.8;;;;;;;12.54;87.87695;945.1827;;;;
2022/06/12 03:58:31;;;;;;;3.6;3.1;;;;;;;12.49;87.7627;945.115;;;;
2022/06/12 04:02:31;;;;;;;3.3;3;;;;;;;12.47;88.19336;945.0898;;;;
2022/06/12 04:04:56;;;;;;;3.3;2.9;;;;;;;12.57;87.36621;945.1623;;;;
2022/06/12 04:07:21;;;;;;;4.7;2.8;;;;;;;12.64;86.76172;945.0956;;;;
2022/06/12 04:09:46;;;;;;;5.7;3;;;;;;;12.7;86.22168;945.1114;;;;
2022/06/12 04:12:11;;;;;;;4.4;3;;;;;;;12.65;86.41699;945.0876;;;;
2022/06/12 04:14:36;;;;;;;4.5;2.8;;;;;;;12.64;86.39453;945.0437;;;;
2022/06/12 04:17:01;;;;;;;3.1;2.7;;;;;;;12.47;87.28711;945.0531;;;;
2022/06/12 04:19:26;;;;;;;3.2;2.8;;;;;;;12.53;87.21777;945.0235;;;;
2022/06/12 04:21:52;;;;;;;3.5;3.2;;;;;;;12.57;87.09082;945.124;;;;
2022/06/12 04:24:17;;;;;;;3.3;2.9;;;;;;;12.61;87.10059;945.1072;;;;
2022/06/12 04:26:42;;;;;;;4.3;2.8;;;;;;;12.68;86.77832;945.0377;;;;
2022/06/12 04:29:07;;;;;;;5.2;3.1;;;;;;;12.65;87.09375;945.0366;;;;
2022/06/12 04:31:32;;;;;;;4.2;3.3;;;;;;;12.63;87.43457;944.9523;;;;
2022/06/12 04:33:58;;;;;;;9.2;7.1;;;;;;;12.71;87.14355;945.0565;;;;
2022/06/12 04:36:22;;;;;;;12.6;9.5;;;;;;;12.77;86.80957;945.0708;;;;
2022/06/12 04:38:47;;;;;;;9.2;8;;;;;;;12.77;86.93555;945.0539;;;;
2022/06/12 04:41:13;;;;;;;9.5;6.7;;;;;;;12.88;86.40527;945.0251;;;;
2022/06/12 04:43:39;;;;;;;7.9;6.1;;;;;;;12.93;85.93359;945.0209;;;;
2022/06/12 04:46:03;;;;;;;6.6;4.9;;;;;;;12.83;86.24707;944.9967;;;;
2022/06/12 04:48:28;;;;;;;3.9;3.5;;;;;;;12.73;86.99609;944.9584;;;;
2022/06/12 04:50:53;;;;;;;4.7;3.1;;;;;;;12.82;86.95801;944.9941;;;;
2022/06/12 04:53:19;;;;;;;8.7;5.1;;;;;;;12.79;86.96289;944.9367;;;;
2022/06/12 04:55:44;;;;;;;7;5.3;;;;;;;12.87;86.72461;944.9914;;;;
2022/06/12 04:58:10;;;;;;;7;4.9;;;;;;;12.98;86.08203;944.9327;;;;
2022/06/12 05:00:36;;;;;;;6.3;4.7;;;;;;;13.12;85.9248;944.8969;;;;
2022/06/12 05:03:01;;;;;;;4.3;3.8;;;;;;;14.1;83.58691;944.9317;;;;
2022/06/12 05:05:27;;;;;;;11.1;6.7;;;;;;;15.73;75.29004;944.8464;;;;
2022/06/12 05:07:52;;;;;;;10.8;5.8;;;;;;;17.47;68.7334;944.8325;;;;
2022/06/12 05:11:06;;;;;;;10.3;7.1;;;;;;;17.18;68.45703;944.8103;;;;
2022/06/12 05:13:34;;;;;;;8.6;4.5;;;;;;;18.28;64.4082;944.7734;;;;
2022/06/12 05:15:59;;;;;;;12.4;6.1;;;;;;;20.27;58.92188;944.711;;;;
2022/06/12 05:18:24;;;;;;;9.1;5.6;;;;;;;21.66;54.39844;944.7252;;;;
2022/06/12 05:20:49;;;;;;;5.7;4.2;;;;;;;22.49;51.83691;944.6808;;;;
2022/06/12 05:23:14;;;;;;;4.5;3.1;;;;;;;21.95;52.24316;944.7072;;;;
2022/06/12 05:25:40;;;;;;;2;1.8;;;;;;;20.64;54.13379;944.6184;;;;
2022/06/12 05:28:05;;;;;;;2.5;1.8;;;;;;;22.6;50.96973;944.665;;;;
2022/06/12 05:30:32;;;;;;;2.1;1.7;;;;;;;21.82;50.24805;944.6875;;;;
2022/06/12 05:32:57;;;;;;;1.7;1.6;;;;;;;22.86;49.55566;944.6384;;;;
2022/06/12 05:35:23;;;;;;;2;1.5;;;;;;;24.81;44.54883;944.6139;;;;
2022/06/12 05:37:48;;;;;;;3.3;1.8;;;;;;;24.25;44.58594;944.5787;;;;
2022/06/12 05:40:13;;;;;;;1.7;1.6;;;;;;;25.77;42.94141;944.5867;;;;
2022/06/12 05:42:39;;;;;;;1.5;1.4;;;;;;;26.04;42.0918;944.5887;;;;
2022/06/12 05:45:03;;;;;;;1.9;1.5;;;;;;;26.73;41.56445;944.6166;;;;
2022/06/12 05:47:29;;;;;;;2.4;1.5;;;;;;;27.02;40.55957;944.5603;;;;
2022/06/12 05:49:54;;;;;;;1.8;1.6;;;;;;;27.1;39.27539;944.5217;;;;
2022/06/12 05:52:20;;;;;;;1.6;1.4;;;;;;;27.73;37.98926;944.524;;;;
2022/06/12 05:54:46;;;;;;;1.4;1.3;;;;;;;27.58;37.07324;944.5636;;;;
2022/06/12 05:57:12;;;;;;;1.4;1.3;;;;;;;27.09;38.89551;944.5991;;;;
2022/06/12 05:59:37;;;;;;;1.4;1.2;;;;;;;27.42;40.51367;944.6245;;;;
2022/06/12 06:02:04;;;;;;;1.5;1.4;;;;;;;27.67;38.7793;944.5269;;;;
2022/06/12 06:04:29;;;;;;;2.1;1.2;;;;;;;28.15;37.46582;944.4744;;;;
2022/06/12 06:06:56;;;;;;;1.4;1.2;;;;;;;28.08;36.73535;944.459;;;;
2022/06/12 06:09:20;;;;;;;1.4;1.3;;;;;;;27.93;38.35059;944.4545;;;;
2022/06/12 06:11:47;;;;;;;1.6;1.5;;;;;;;26.55;39.48828;944.4997;;;;
2022/06/12 06:14:12;;;;;;;1.5;1.4;;;;;;;25.74;41.55566;944.4492;;;;
2022/06/12 06:16:38;;;;;;;1.5;1.4;;;;;;;27.32;38.91504;944.4927;;;;
2022/06/12 06:19:03;;;;;;;1.7;1.6;;;;;;;26.14;40.35156;944.5331;;;;
2022/06/12 06:21:29;;;;;;;3.2;1.4;;;;;;;27.96;37.71191;944.475;;;;
2022/06/12 06:23:55;;;;;;;1.6;1.5;;;;;;;26.71;40.0459;944.4844;;;;
2022/06/12 06:26:20;;;;;;;1.8;1.5;;;;;;;28.84;38.09473;944.4377;;;;
2022/06/12 06:28:45;;;;;;;1.8;1.5;;;;;;;27.64;38.84766;944.3731;;;;
2022/06/12 06:31:12;;;;;;;2;1.4;;;;;;;28.16;37.3125;944.4026;;;;
2022/06/12 06:33:37;;;;;;;1.5;1.4;;;;;;;27.8;37.50781;944.3745;;;;
2022/06/12 06:36:02;;;;;;;2.2;1.6;;;;;;;28.94;36.12695;944.3722;;;;
2022/06/12 06:38:27;;;;;;;2.1;1.5;;;;;;;29.64;34.33496;944.3589;;;;
2022/06/12 06:40:55;;;;;;;1.7;1.6;;;;;;;29.64;34.77637;944.3284;;;;
2022/06/12 06:43:21;;;;;;;4;1.7;;;;;;;29.83;32.56055;944.3041;;;;
2022/06/12 06:48:11;;;;;;;1.7;1.6;;;;;;;29.16;33.7627;944.3967;;;;
2022/06/12 06:50:36;;;;;;;3.1;1.4;;;;;;;29.74;34.10449;944.3631;;;;
2022/06/12 06:53:02;;;;;;;1.6;1.4;;;;;;;29.39;32.51758;944.3254;;;;
2022/06/12 06:55:27;;;;;;;1.9;1.2;;;;;;;29.54;35.41211;944.3272;;;;
2022/06/12 06:57:57;;;;;;;2.3;1.5;;;;;;;29.29;34.20215;944.2701;;;;
2022/06/12 07:00:21;;;;;;;2.4;1.3;;;;;;;27.99;36.26367;944.2413;;;;
2022/06/12 07:02:46;;;;;;;1.6;1.3;;;;;;;30.32;32.19043;944.2597;;;;
2022/06/12 07:05:11;;;;;;;1.5;1.4;;;;;;;32.25;30.57617;944.2648;;;;
2022/06/12 07:07:38;;;;;;;1.1;1.1;;;;;;;28.8;32.78418;944.2305;;;;
2022/06/12 07:10:04;;;;;;;2.5;1.3;;;;;;;29.91;34.41504;944.2528;;;;
2022/06/12 07:12:30;;;;;;;1.6;1.5;;;;;;;30.37;32.45605;944.1713;;;;
2022/06/12 07:14:55;;;;;;;1.8;1.2;;;;;;;33.16;30.03711;944.1805;;;;
2022/06/12 07:17:23;;;;;;;1.3;1.2;;;;;;;33.49;27.78613;944.1384;;;;
2022/06/12 07:19:48;;;;;;;1.4;1.3;;;;;;;33.34;28.67871;944.0778;;;;
2022/06/12 07:22:16;;;;;;;2;1.3;;;;;;;35.39;26.58691;944.1138;;;;
2022/06/12 07:24:41;;;;;;;1.5;1.1;;;;;;;34.79;26.82813;944.1085;;;;
2022/06/12 07:27:06;;;;;;;1.4;1.2;;;;;;;34.03;26.07422;944.0719;;;;
2022/06/12 07:29:31;;;;;;;1.8;1.2;;;;;;;35.37;25.54688;944.0259;;;;
2022/06/12 07:31:59;;;;;;;1.2;1.1;;;;;;;34.06;28.77246;944.02;;;;
2022/06/12 07:34:22;;;;;;;1.4;1.3;;;;;;;34.8;26.16602;944.0111;;;;
2022/06/12 07:36:50;;;;;;;1.4;1.3;;;;;;;33.43;26.72461;943.9789;;;;
2022/06/12 07:39:15;;;;;;;1.4;1.3;;;;;;;31.68;29.7959;943.9788;;;;
2022/06/12 07:41:41;;;;;;;1.6;1.2;;;;;;;34.08;29.80859;943.9689;;;;
2022/06/12 07:44:06;;;;;;;1.5;1.2;;;;;;;35.62;27.0957;943.9722;;;;
2022/06/12 07:46:34;;;;;;;1.4;1.2;;;;;;;34.95;27.80273;943.9526;;;;
2022/06/12 07:48:58;;;;;;;1.3;1.2;;;;;;;36.56;23.45898;943.9545;;;;
2022/06/12 07:51:23;;;;;;;1.2;1.1;;;;;;;37.13;23.16016;943.8475;;;;
2022/06/12 07:53:49;;;;;;;1.2;1.1;;;;;;;36.17;24.26074;943.8464;;;;
2022/06/12 07:56:14;;;;;;;1.4;1.3;;;;;;;36.5;24.3877;943.9221;;;;
2022/06/12 07:58:40;;;;;;;1.2;1.1;;;;;;;35.34;24.27734;943.844;;;;
2022/06/12 08:01:05;;;;;;;1.3;1.2;;;;;;;35.08;25.25293;943.9231;;;;
2022/06/12 08:03:30;;;;;;;1.3;1.2;;;;;;;34.97;24.86133;943.8742;;;;
2022/06/12 08:05:58;;;;;;;2;1.2;;;;;;;36.9;23.86328;943.8054;;;;
2022/06/12 08:08:23;;;;;;;1.9;1.1;;;;;;;37.34;22.80762;943.8113;;;;
2022/06/12 08:10:48;;;;;;;2.4;1.2;;;;;;;36.6;23.64258;943.8217;;;;
2022/06/12 08:13:13;;;;;;;1.4;1;;;;;;;34.61;24.63672;943.8272;;;;
2022/06/12 08:15:44;;;;;;;0.9;0.9;;;;;;;36.31;23.91797;943.8198;;;;
2022/06/12 08:18:11;;;;;;;2.6;1.2;;;;;;;36.63;24.67285;943.7338;;;;
2022/06/12 08:20:37;;;;;;;1.2;1.1;;;;;;;36.99;23.4082;943.7405;;;;
2022/06/12 08:23:03;;;;;;;1.1;1.1;;;;;;;38.68;21.29297;943.7629;;;;
2022/06/12 08:25:28;;;;;;;1.5;1;;;;;;;39.39;20.54688;943.7319;;;;
2022/06/12 08:27:53;;;;;;;1.2;1;;;;;;;39.47;20.30664;943.7566;;;;
2022/06/12 08:30:22;;;;;;;1.2;1.1;;;;;;;37.47;22.07324;943.6646;;;;
2022/06/12 08:32:50;;;;;;;2.2;1.2;;;;;;;38.35;21.13184;943.6511;;;;
2022/06/12 08:35:15;;;;;;;1;1;;;;;;;38.56;20.67969;943.61;;;;
2022/06/12 08:37:40;;;;;;;1.1;1.1;;;;;;;38.01;20.46094;943.5742;;;;
2022/06/12 08:40:05;;;;;;;4.7;1.3;;;;;;;37.76;22.56152;943.5392;;;;
2022/06/12 08:42:30;;;;;;;0.9;0.9;;;;;;;37.24;21.97754;943.466;;;;
2022/06/12 08:44:55;;;;;;;0.9;0.9;;;;;;;37.49;22.69336;943.4604;;;;
2022/06/12 08:47:20;;;;;;;1.2;1;;;;;;;38.05;21.41016;943.4439;;;;
2022/06/12 08:49:45;;;;;;;1.4;1.3;;;;;;;37.65;22.41016;943.3822;;;;
2022/06/12 08:52:10;;;;;;;2.5;1.1;;;;;;;37.22;23.41992;943.3571;;;;
2022/06/12 08:54:36;;;;;;;1.3;1.2;;;;;;;37.76;22.07617;943.3872;;;;
2022/06/12 08:57:01;;;;;;;1.6;1.1;;;;;;;37.37;23.56055;943.4178;;;;
2022/06/12 08:59:26;;;;;;;3.6;1.1;;;;;;;37.47;23.06836;943.3553;;;;
2022/06/12 09:01:51;;;;;;;1;1;;;;;;;37.03;22.63477;943.3083;;;;
2022/06/12 09:04:16;;;;;;;1.2;1.1;;;;;;;37.59;23.85059;943.3025;;;;
2022/06/12 09:06:41;;;;;;;3.2;1.4;;;;;;;37.82;23.14648;943.2953;;;;
2022/06/12 09:09:06;;;;;;;1.8;1.1;;;;;;;35.8;25.03906;943.2277;;;;
2022/06/12 09:11:31;;;;;;;2.3;1.1;;;;;;;34.4;26.33594;943.2558;;;;
2022/06/12 09:13:57;;;;;;;3;1.4;;;;;;;34.6;26.7207;943.2191;;;;
2022/06/12 09:16:22;;;;;;;2.1;1.1;;;;;;;35.39;25.77734;943.2274;;;;
2022/06/12 09:18:47;;;;;;;1.9;1;;;;;;;35.78;24.82031;943.2509;;;;
2022/06/12 09:21:12;;;;;;;1.6;1.1;;;;;;;34.62;27.01172;943.2479;;;;
2022/06/12 09:23:38;;;;;;;1.4;1.3;;;;;;;34.14;26.02051;943.252;;;;
2022/06/12 09:26:06;;;;;;;1.7;1;;;;;;;34.71;25.85938;943.236;;;;
2022/06/12 09:28:30;;;;;;;2.1;1.1;;;;;;;34.5;25.77539;943.1866;;;;
2022/06/12 09:30:55;;;;;;;1.2;0.9;;;;;;;33.06;25.56152;943.1153;;;;
2022/06/12 09:33:20;;;;;;;2.5;1.1;;;;;;;33.95;27.05566;943.1756;;;;
2022/06/12 09:35:45;;;;;;;2.7;0.9;;;;;;;33.72;28.82324;943.142;;;;
2022/06/12 09:38:23;;;;;;;2;1.6;;;;;;;33.12;28.67773;943.1089;;;;
2022/06/12 09:40:37;;;;;;;1.2;1.1;;;;;;;32.8;28.69238;943.0917;;;;
2022/06/12 09:43:01;;;;;;;1.6;1;;;;;;;31.99;29.07227;943.106;;;;
2022/06/12 09:45:26;;;;;;;1.7;1;;;;;;;32.31;30.78418;943.0605;;;;
2022/06/12 09:47:53;;;;;;;1.2;1.1;;;;;;;32.78;29.26758;943.0136;;;;
2022/06/12 09:50:17;;;;;;;1.7;1;;;;;;;31.61;30.97656;943.0535;;;;
2022/06/12 09:52:42;;;;;;;1.6;1.1;;;;;;;31.83;30.89551;942.9381;;;;
2022/06/12 09:55:10;;;;;;;1.6;1;;;;;;;30.03;35.92773;942.9417;;;;
2022/06/12 09:57:36;;;;;;;1.3;1.2;;;;;;;30.31;35.25684;942.8826;;;;
2022/06/12 10:00:01;;;;;;;1.6;1;;;;;;;30.98;31.83105;942.8329;;;;
2022/06/12 10:02:26;;;;;;;1.6;0.9;;;;;;;30.43;33.37988;942.8078;;;;
2022/06/12 10:04:51;;;;;;;1.5;1.2;;;;;;;30.93;33.87109;942.6893;;;;
2022/06/12 10:07:16;;;;;;;0.9;0.8;;;;;;;31.1;30.80957;942.7701;;;;
2022/06/12 10:09:41;;;;;;;3.9;1.5;;;;;;;31.09;31.85059;942.6823;;;;
2022/06/12 10:12:06;;;;;;;5.9;1.3;;;;;;;31.04;33.36523;942.6447;;;;
2022/06/12 10:14:32;;;;;;;1.7;1.2;;;;;;;31.18;33.51953;942.611;;;;
2022/06/12 10:16:57;;;;;;;2.1;1;;;;;;;30.32;35.27051;942.5848;;;;
2022/06/12 10:19:22;;;;;;;1.6;1.1;;;;;;;30.76;31.94629;942.4703;;;;
2022/06/12 10:21:47;;;;;;;1.8;1.2;;;;;;;30.92;31.88574;942.4883;;;;
2022/06/12 10:24:12;;;;;;;1;0.9;;;;;;;31.1;30.3916;942.4776;;;;
2022/06/12 10:26:37;;;;;;;1.4;1.1;;;;;;;31.25;32.49512;942.5092;;;;
2022/06/12 10:29:05;;;;;;;1.2;1.1;;;;;;;31.3;31.87598;942.4509;;;;
2022/06/12 10:31:33;;;;;;;1.3;1.2;;;;;;;30.9;30.60547;942.3886;;;;
2022/06/12 10:33:56;;;;;;;4.2;1.6;;;;;;;29.99;36.56934;942.3222;;;;
2022/06/12 10:36:21;;;;;;;2.6;1.4;;;;;;;29.25;37.98633;942.3256;;;;
2022/06/12 10:41:11;;;;;;;5.3;2.3;;;;;;;29.6;34.74902;942.2045;;;;
2022/06/12 10:43:36;;;;;;;3;1.7;;;;;;;29.72;36.17773;942.1869;;;;
2022/06/12 10:46:01;;;;;;;1.6;1.1;;;;;;;29.77;36.27637;942.1881;;;;
2022/06/12 10:48:26;;;;;;;6;2.5;;;;;;;29.83;34.82715;942.1326;;;;
2022/06/12 10:50:52;;;;;;;1.8;1.6;;;;;;;29.28;35.05859;942.0965;;;;
2022/06/12 10:53:17;;;;;;;2;1.5;;;;;;;29.39;35.5791;942.1067;;;;
2022/06/12 10:55:43;;;;;;;1.6;1.3;;;;;;;29.27;37.59473;942.0728;;;;
2022/06/12 10:58:08;;;;;;;1.6;1.1;;;;;;;29.46;36.84766;942.0648;;;;
2022/06/12 11:00:44;;;;;;;2.4;1.3;;;;;;;29.79;36.17188;942.0424;;;;
2022/06/12 11:03:09;;;;;;;1.2;1;;;;;;;29.84;33.93262;942.0719;;;;
2022/06/12 11:05:34;;;;;;;1.1;1;;;;;;;30.04;33.00488;941.9889;;;;
2022/06/12 11:07:59;;;;;;;1;0.9;;;;;;;30.04;32.38477;941.9626;;;;
2022/06/12 11:10:24;;;;;;;2.2;1.1;;;;;;;30.19;32.09766;941.9402;;;;
2022/06/12 11:12:50;;;;;;;1.1;1;;;;;;;30.32;31.83203;941.8586;;;;
2022/06/12 11:15:15;;;;;;;3.6;1.2;;;;;;;30.25;33.4502;941.8167;;;;
2022/06/12 11:17:40;;;;;;;1.7;1;;;;;;;30.35;31.67871;941.8147;;;;
2022/06/12 11:20:06;;;;;;;2.2;0.9;;;;;;;30.54;33.26855;941.7539;;;;
2022/06/12 11:22:33;;;;;;;0.9;0.9;;;;;;;30.71;30.77148;941.7594;;;;
2022/06/12 11:24:58;;;;;;;1.2;1;;;;;;;30.18;34.51953;941.7485;;;;
2022/06/12 11:27:24;;;;;;;0.9;0.9;;;;;;;29.72;34.91406;941.736;;;;
2022/06/12 11:29:49;;;;;;;1.3;1;;;;;;;29.14;34.54785;941.7385;;;;
2022/06/12 11:32:14;;;;;;;1.7;0.9;;;;;;;29.45;32.75977;941.64;;;;
2022/06/12 11:34:40;;;;;;;1;1;;;;;;;29.64;32.79688;941.6557;;;;
2022/06/12 11:37:06;;;;;;;1.3;0.9;;;;;;;30.05;31.51465;941.6121;;;;
2022/06/12 11:39:31;;;;;;;0.8;0.8;;;;;;;30.32;30.80469;941.5753;;;;
2022/06/12 11:41:56;;;;;;;1.1;0.8;;;;;;;30.41;30.04688;941.516;;;;
2022/06/12 11:44:21;;;;;;;0.9;0.8;;;;;;;30.54;30.59277;941.5415;;;;
2022/06/12 11:46:48;;;;;;;1.8;1.4;;;;;;;30.53;32.75391;941.553;;;;
2022/06/12 11:49:13;;;;;;;2.6;1;;;;;;;30.59;31.15723;941.4472;;;;
2022/06/12 11:51:38;;;;;;;0.9;0.9;;;;;;;30.65;31.12598;941.4702;;;;
2022/06/12 11:54:04;;;;;;;3.2;1.2;;;;;;;30.81;32.55957;941.4226;;;;
2022/06/12 11:56:28;;;;;;;0.9;0.9;;;;;;;30.63;31.61523;941.4136;;;;
2022/06/12 11:58:53;;;;;;;2;1.1;;;;;;;30.67;30.33984;941.2979;;;;
2022/06/12 12:01:19;;;;;;;1.4;1;;;;;;;30.73;30.35449;941.3041;;;;
2022/06/12 12:03:43;;;;;;;1.1;1;;;;;;;30.65;30.31348;941.2996;;;;
2022/06/12 12:06:09;;;;;;;1.1;1;;;;;;;30.73;31.74121;941.3031;;;;
2022/06/12 12:08:34;;;;;;;13.9;1.7;;;;;;;30.5;33.40918;941.3258;;;;
2022/06/12 12:10:59;;;;;;;2.3;1.2;;;;;;;30.52;31.2002;941.2646;;;;
2022/06/12 12:13:24;;;;;;;5.4;3.1;;;;;;;30.63;32.27246;941.1384;;;;
2022/06/12 12:15:49;;;;;;;1.2;1.1;;;;;;;30.44;31.23145;941.1708;;;;
2022/06/12 12:18:14;;;;;;;1.5;0.9;;;;;;;30.66;31.33008;941.0858;;;;
2022/06/12 12:20:39;;;;;;;0.9;0.9;;;;;;;30.67;35.11914;941.0545;;;;
2022/06/12 12:23:04;;;;;;;5.1;1.5;;;;;;;30.62;32.74902;941.0308;;;;
2022/06/12 12:25:29;;;;;;;1.6;1.5;;;;;;;30.78;30.7168;941.0035;;;;
2022/06/12 12:27:54;;;;;;;1.3;1.2;;;;;;;30.65;31.31738;940.9072;;;;
2022/06/12 12:30:19;;;;;;;2.7;1.3;;;;;;;30.71;30.99902;940.9302;;;;
2022/06/12 12:32:45;;;;;;;1.6;1.5;;;;;;;30.73;32.4707;940.9275;;;;
2022/06/12 12:41:11;;;;;;;2.6;1.2;;;;;;;30.73;30.95215;940.9272;;;;
2022/06/12 12:42:25;;;;;;;0.9;0.8;;;;;;;30.31;31.2334;940.9186;;;;
2022/06/12 12:44:50;;;;;;;1.4;1;;;;;;;30.5;31.91602;940.8789;;;;
2022/06/12 12:47:15;;;;;;;1.6;0.9;;;;;;;30.66;31.7002;940.8739;;;;
2022/06/12 12:49:42;;;;;;;2.4;1;;;;;;;30.53;29.94727;940.8378;;;;
2022/06/12 12:52:06;;;;;;;1.1;1;;;;;;;30.62;30.19238;940.8519;;;;
2022/06/12 12:54:32;;;;;;;1.2;1.1;;;;;;;30.54;31.39355;940.7911;;;;
2022/06/12 12:56:58;;;;;;;2.2;1;;;;;;;30.32;32.14258;940.8156;;;;
2022/06/12 12:59:22;;;;;;;1.2;1.1;;;;;;;30.38;32.24219;940.8683;;;;
2022/06/12 13:01:52;;;;;;;0.9;0.9;;;;;;;30.43;29.08105;940.7667;;;;
2022/06/12 13:04:18;;;;;;;2.3;1.1;;;;;;;30.6;30.38281;940.8069;;;;
2022/06/12 13:06:43;;;;;;;1.3;1;;;;;;;30.41;31.94629;940.8006;;;;
2022/06/12 13:09:08;;;;;;;1.3;1.2;;;;;;;30.37;32.26563;940.7533;;;;
2022/06/12 13:11:33;;;;;;;1.2;0.9;;;;;;;30.26;33.86914;940.7453;;;;
2022/06/12 13:13:59;;;;;;;2.2;1.5;;;;;;;29.73;32.80371;940.709;;;;
2022/06/12 13:16:24;;;;;;;1.5;1;;;;;;;29.66;33.56152;940.6454;;;;
2022/06/12 13:18:49;;;;;;;2.4;1.2;;;;;;;29.36;36.23242;940.6096;;;;
2022/06/12 13:21:14;;;;;;;1.7;1.2;;;;;;;29.59;34.0332;940.6347;;;;
2022/06/12 13:23:41;;;;;;;2.4;1.2;;;;;;;29.6;33.30664;940.6088;;;;
2022/06/12 13:26:06;;;;;;;1.3;1.1;;;;;;;29.66;31.88086;940.5699;;;;
2022/06/12 13:28:31;;;;;;;1.1;1.1;;;;;;;29.59;33.83008;940.5142;;;;
2022/06/12 13:30:56;;;;;;;2.8;1;;;;;;;29.6;33.04492;940.5114;;;;
2022/06/12 13:33:21;;;;;;;1.3;0.8;;;;;;;29.69;32.57422;940.4767;;;;
2022/06/12 13:35:46;;;;;;;2.1;1.1;;;;;;;29.87;33.60059;940.4763;;;;
2022/06/12 13:38:12;;;;;;;1.5;1.1;;;;;;;29.94;32.52051;940.4911;;;;
2022/06/12 13:40:38;;;;;;;2.2;1;;;;;;;29.83;34.09961;940.4699;;;;
2022/06/12 13:43:04;;;;;;;1;0.9;;;;;;;29.92;33.61719;940.4573;;;;
2022/06/12 13:45:29;;;;;;;1.7;1;;;;;;;29.66;34.81348;940.4156;;;;
2022/06/12 13:47:54;;;;;;;1;0.8;;;;;;;29.19;34.84961;940.4778;;;;
2022/06/12 13:50:20;;;;;;;1.1;0.9;;;;;;;29.39;33.23242;940.4341;;;;
2022/06/12 13:52:46;;;;;;;1.1;0.8;;;;;;;29.38;33.31445;940.4192;;;;
2022/06/12 13:55:11;;;;;;;3.3;1.1;;;;;;;29.27;34.0332;940.3358;;;;
2022/06/12 13:57:39;;;;;;;1;1;;;;;;;29.41;33.9834;940.3203;;;;
2022/06/12 14:00:04;;;;;;;2.4;1;;;;;;;29.32;33.79785;940.3461;;;;
2022/06/12 14:02:28;;;;;;;1.1;1;;;;;;;29.42;33.27051;940.3013;;;;
2022/06/12 14:04:54;;;;;;;2.4;1;;;;;;;29.29;33.75977;940.243;;;;
2022/06/12 14:07:19;;;;;;;4.3;1.3;;;;;;;28.59;36.20605;940.3638;;;;
2022/06/12 14:09:46;;;;;;;1.3;1;;;;;;;28.52;35.02246;940.3514;;;;
2022/06/12 14:12:11;;;;;;;1.5;0.9;;;;;;;28.73;35.46777;940.3746;;;;
2022/06/12 14:14:36;;;;;;;1.1;1;;;;;;;28.68;33.36914;940.3293;;;;
2022/06/12 14:17:02;;;;;;;1.2;1.1;;;;;;;28.87;33.77734;940.3777;;;;
2022/06/12 14:19:27;;;;;;;0.9;0.9;;;;;;;28.88;34.49121;940.3535;;;;
2022/06/12 14:21:52;;;;;;;1.3;1.1;;;;;;;28.92;33.42285;940.2642;;;;
2022/06/12 14:24:18;;;;;;;1.3;1.1;;;;;;;28.76;35.68359;940.2492;;;;
2022/06/12 14:26:45;;;;;;;0.9;0.9;;;;;;;28.69;33.65625;940.2878;;;;
2022/06/12 14:29:09;;;;;;;3.8;1.3;;;;;;;28.63;35.46094;940.2654;;;;
2022/06/12 14:31:34;;;;;;;1.6;1.1;;;;;;;28.4;34.37109;940.253;;;;
2022/06/12 14:33:59;;;;;;;3.1;1.1;;;;;;;28.1;36.17871;940.261;;;;